createdAt,value
2017-10-17T00:00:12.197Z,13.79
2017-10-17T00:02:39.721Z,13.67
2017-10-17T00:05:07.269Z,13.61
2017-10-17T00:07:35.046Z,13.66
2017-10-17T00:10:02.680Z,13.33
2017-10-17T00:12:30.228Z,13.28
2017-10-17T00:14:57.856Z,13.26
2017-10-17T00:17:25.495Z,13.35
2017-10-17T00:19:53.047Z,13.25
2017-10-17T00:22:23.633Z,13.08
2017-10-17T00:25:10.343Z,13.14
2017-10-17T00:27:38.548Z,13.04
2017-10-17T00:30:06.070Z,13.25
2017-10-17T00:32:39.218Z,13.36
2017-10-17T00:35:23.362Z,13.36
2017-10-17T00:37:51.173Z,13.32
2017-10-17T00:40:19.127Z,13.21
2017-10-17T00:42:46.707Z,13.18
2017-10-17T00:45:14.943Z,13.16
2017-10-17T00:47:43.308Z,13.19
2017-10-17T00:50:10.941Z,13.14
2017-10-17T00:52:39.504Z,13.15
2017-10-17T00:55:10.314Z,13.12
2017-10-17T00:57:39.111Z,13.08
2017-10-17T01:00:06.713Z,13.13
2017-10-17T01:02:34.351Z,13.15
2017-10-17T01:05:01.993Z,13.23
2017-10-17T01:07:30.424Z,13.21
2017-10-17T01:09:59.278Z,13.03
2017-10-17T01:12:27.513Z,13.03
2017-10-17T01:14:55.109Z,12.85
2017-10-17T01:17:24.506Z,12.80
2017-10-17T01:20:00.860Z,12.95
2017-10-17T01:22:28.800Z,12.91
2017-10-17T01:24:56.497Z,12.97
2017-10-17T01:27:24.275Z,12.95
2017-10-17T01:29:51.898Z,12.89
2017-10-17T01:32:19.517Z,12.77
2017-10-17T01:34:49.917Z,12.72
2017-10-17T01:37:18.546Z,12.52
2017-10-17T01:39:49.027Z,12.35
2017-10-17T01:42:17.417Z,12.45
2017-10-17T01:44:52.854Z,12.56
2017-10-17T01:47:20.500Z,12.60
2017-10-17T01:49:50.651Z,12.39
2017-10-17T01:52:22.914Z,12.49
2017-10-17T01:54:56.563Z,12.59
2017-10-17T01:57:25.667Z,12.62
2017-10-17T02:00:08.173Z,12.62
2017-10-17T02:02:40.696Z,12.54
2017-10-17T02:05:08.392Z,12.24
2017-10-17T02:07:35.929Z,12.22
2017-10-17T02:10:21.205Z,12.30
2017-10-17T02:12:49.683Z,12.27
2017-10-17T02:15:18.001Z,12.20
2017-10-17T02:17:54.749Z,12.17
2017-10-17T02:20:23.052Z,12.31
2017-10-17T02:22:51.328Z,12.27
2017-10-17T02:25:35.572Z,12.28
2017-10-17T02:28:06.047Z,12.28
2017-10-17T02:30:40.200Z,12.31
2017-10-17T02:33:08.192Z,12.23
2017-10-17T02:35:37.518Z,12.19
2017-10-17T02:38:08.013Z,12.00
2017-10-17T02:40:35.531Z,11.97
2017-10-17T02:46:18.207Z,11.96
2017-10-17T02:51:53.860Z,12.05
2017-10-17T02:54:21.475Z,12.07
2017-10-17T02:56:49.106Z,12.09
2017-10-17T02:59:16.670Z,11.97
2017-10-17T03:01:49.087Z,11.83
2017-10-17T03:04:23.310Z,11.78
2017-10-17T03:06:51.576Z,11.80
2017-10-17T03:09:19.218Z,11.70
2017-10-17T03:11:46.865Z,11.71
2017-10-17T03:14:15.713Z,11.74
2017-10-17T03:16:43.258Z,11.78
2017-10-17T03:19:13.768Z,11.83
2017-10-17T03:21:45.240Z,11.80
2017-10-17T03:24:14.583Z,11.76
2017-10-17T03:26:43.020Z,11.68
2017-10-17T03:29:10.560Z,11.51
2017-10-17T03:31:39.232Z,11.59
2017-10-17T03:34:14.289Z,11.41
2017-10-17T03:36:45.128Z,11.52
2017-10-17T03:39:13.266Z,11.62
2017-10-17T03:41:41.863Z,11.65
2017-10-17T03:47:31.358Z,11.38
2017-10-17T03:50:12.449Z,11.36
2017-10-17T03:52:44.746Z,11.40
2017-10-17T03:55:13.807Z,11.45
2017-10-17T03:57:46.179Z,11.40
2017-10-17T04:00:14.235Z,11.38
2017-10-17T04:02:42.805Z,11.31
2017-10-17T04:05:18.898Z,11.32
2017-10-17T04:07:47.331Z,11.27
2017-10-17T04:10:29.241Z,11.37
2017-10-17T04:13:00.591Z,11.34
2017-10-17T04:15:28.181Z,11.42
2017-10-17T04:18:01.642Z,11.35
2017-10-17T04:20:45.695Z,11.29
2017-10-17T04:23:29.721Z,11.25
2017-10-17T04:29:42.590Z,10.92
2017-10-17T04:32:10.624Z,11.03
2017-10-17T04:34:46.781Z,11.10
2017-10-17T04:37:24.532Z,11.00
2017-10-17T04:39:52.182Z,10.99
2017-10-17T04:42:43.362Z,10.98
2017-10-17T04:48:30.164Z,10.86
2017-10-17T04:51:04.319Z,10.83
2017-10-17T04:53:42.758Z,10.90
2017-10-17T04:56:25.186Z,10.74
2017-10-17T04:58:55.400Z,10.82
2017-10-17T05:01:23.336Z,10.70
2017-10-17T05:03:58.434Z,10.72
2017-10-17T05:06:25.984Z,10.78
2017-10-17T05:12:02.157Z,10.67
2017-10-17T05:14:44.347Z,10.71
2017-10-17T05:17:28.595Z,10.72
2017-10-17T05:20:01.051Z,10.65
2017-10-17T05:22:33.751Z,10.71
2017-10-17T05:28:44.307Z,10.64
2017-10-17T05:31:13.411Z,10.51
2017-10-17T05:33:45.334Z,10.35
2017-10-17T05:39:20.934Z,10.35
2017-10-17T05:41:48.483Z,10.48
2017-10-17T05:44:27.969Z,10.51
2017-10-17T05:46:55.563Z,10.53
2017-10-17T05:49:31.218Z,10.51
2017-10-17T05:51:58.780Z,10.65
2017-10-17T05:54:26.435Z,10.54
2017-10-17T05:56:54.509Z,10.66
2017-10-17T05:59:22.067Z,10.60
2017-10-17T06:01:49.658Z,10.44
2017-10-17T06:04:17.219Z,10.46
2017-10-17T06:06:44.784Z,10.51
2017-10-17T06:09:12.937Z,10.64
2017-10-17T06:11:40.496Z,10.58
2017-10-17T06:14:08.869Z,10.52
2017-10-17T06:16:37.392Z,10.25
2017-10-17T06:19:04.939Z,10.55
2017-10-17T06:21:32.606Z,10.54
2017-10-17T06:24:00.340Z,10.50
2017-10-17T06:26:27.804Z,10.76
2017-10-17T06:28:55.284Z,10.67
2017-10-17T06:31:22.890Z,10.51
2017-10-17T06:33:50.396Z,10.70
2017-10-17T06:36:18.027Z,10.99
2017-10-17T06:38:45.529Z,10.98
2017-10-17T06:41:13.040Z,13.58
2017-10-17T06:43:41.128Z,16.66
2017-10-17T06:46:08.607Z,18.76
2017-10-17T06:48:36.139Z,20.35
2017-10-17T06:51:03.637Z,21.51
2017-10-17T06:53:31.119Z,22.27
2017-10-17T06:55:58.612Z,22.94
2017-10-17T06:58:26.175Z,23.93
2017-10-17T07:00:53.687Z,24.31
2017-10-17T07:03:21.243Z,24.86
2017-10-17T07:05:48.761Z,25.66
2017-10-17T07:08:16.376Z,26.03
2017-10-17T07:13:24.878Z,27.17
2017-10-17T07:15:53.365Z,27.70
2017-10-17T08:42:18.544Z,30.91
2017-10-17T08:44:55.948Z,31.83
2017-10-17T09:56:25.138Z,34.94
2017-10-17T10:35:01.895Z,39.18
2017-10-17T10:37:30.192Z,38.27
2017-10-17T10:44:47.765Z,38.23
2017-10-17T10:48:01.964Z,38.51
2017-10-17T10:53:38.011Z,38.45
2017-10-17T10:56:07.213Z,39.09
2017-10-17T10:58:36.627Z,38.61
2017-10-17T11:01:16.324Z,39.29
2017-10-17T11:03:50.722Z,39.06
2017-10-17T11:06:19.602Z,40.06
2017-10-17T12:18:13.801Z,38.69
2017-10-17T12:20:46.958Z,37.74
2017-10-17T12:23:18.810Z,39.20
2017-10-17T12:35:07.114Z,38.69
2017-10-17T12:37:34.777Z,39.01
2017-10-17T12:40:43.811Z,37.11
2017-10-17T12:43:12.019Z,37.26
2017-10-17T12:51:45.335Z,35.87
2017-10-17T12:54:13.555Z,35.65
2017-10-17T13:04:29.191Z,34.35
2017-10-17T13:09:46.907Z,33.94
2017-10-17T13:12:16.257Z,34.32
2017-10-17T13:14:47.535Z,34.64
2017-10-17T13:20:15.498Z,34.72
2017-10-17T13:22:43.584Z,34.78
2017-10-17T13:25:22.980Z,34.83
2017-10-17T13:27:50.619Z,34.14
2017-10-17T13:30:29.915Z,33.75
2017-10-17T13:32:59.297Z,34.00
2017-10-17T13:35:29.970Z,34.30
2017-10-17T13:41:02.091Z,33.81
2017-10-17T13:43:29.820Z,33.26
2017-10-17T13:45:57.475Z,32.66
2017-10-17T13:48:25.194Z,33.06
2017-10-17T13:50:52.732Z,32.84
2017-10-17T13:53:21.789Z,31.93
2017-10-17T13:55:57.085Z,32.07
2017-10-17T13:58:28.171Z,31.51
2017-10-17T14:03:37.197Z,31.10
2017-10-17T14:06:04.805Z,30.70
2017-10-17T14:08:35.710Z,30.39
2017-10-17T14:11:05.913Z,30.23
2017-10-17T14:13:33.501Z,29.88
2017-10-17T14:16:01.487Z,29.95
2017-10-17T14:31:04.725Z,29.49
2017-10-17T14:33:32.324Z,29.44
2017-10-17T14:36:00.322Z,29.10
2017-10-17T14:38:27.979Z,28.99
2017-10-17T14:41:01.034Z,29.01
2017-10-17T14:46:32.615Z,28.01
2017-10-17T14:49:03.425Z,28.10
2017-10-17T14:57:13.136Z,28.12
2017-10-17T14:59:40.751Z,27.78
2017-10-17T15:02:08.662Z,27.42
2017-10-17T15:15:17.477Z,27.68
2017-10-17T15:17:45.151Z,27.66
2017-10-17T15:20:16.798Z,27.67
2017-10-17T15:36:26.980Z,26.60
2017-10-17T15:38:54.544Z,26.37
2017-10-17T15:41:22.530Z,26.35
2017-10-17T15:43:50.510Z,26.25
2017-10-17T15:46:18.083Z,26.12
2017-10-17T15:48:45.757Z,26.03
2017-10-17T15:51:13.316Z,25.94
2017-10-17T15:53:40.893Z,25.65
2017-10-17T15:56:08.452Z,25.48
2017-10-17T15:58:37.329Z,25.46
2017-10-17T16:01:07.649Z,25.33
2017-10-17T16:03:35.622Z,24.92
2017-10-17T16:06:03.327Z,24.88
2017-10-17T16:08:30.930Z,24.86
2017-10-17T16:10:58.530Z,24.64
2017-10-17T16:13:26.273Z,24.26
2017-10-17T16:15:55.065Z,24.26
2017-10-17T16:18:23.066Z,24.22
2017-10-17T16:20:53.520Z,24.18
2017-10-17T16:23:21.136Z,24.06
2017-10-17T16:25:48.757Z,23.76
2017-10-17T16:28:32.083Z,23.75
2017-10-17T16:34:42.323Z,23.40
2017-10-17T16:40:05.304Z,23.23
2017-10-17T16:42:35.502Z,23.13
2017-10-17T16:45:05.915Z,23.05
2017-10-17T16:47:42.813Z,22.72
2017-10-17T16:50:11.847Z,22.78
2017-10-17T16:52:48.580Z,22.51
2017-10-17T16:55:24.061Z,22.46
2017-10-17T16:57:54.275Z,22.07
2017-10-17T17:00:23.891Z,22.11
2017-10-17T17:03:02.055Z,21.68
2017-10-17T17:05:38.094Z,21.89
2017-10-17T17:08:07.168Z,21.83
2017-10-17T17:24:02.171Z,20.74
2017-10-17T17:26:37.957Z,20.78
2017-10-17T17:29:26.486Z,20.73
2017-10-17T17:34:51.020Z,20.70
2017-10-17T17:37:18.954Z,20.56
2017-10-17T17:43:19.881Z,20.30
2017-10-17T17:45:47.688Z,20.06
2017-10-17T17:48:18.184Z,20.01
2017-10-17T17:50:48.798Z,19.99
2017-10-17T17:53:20.994Z,19.89
2017-10-17T18:02:39.493Z,19.38
2017-10-17T18:09:13.617Z,19.43
2017-10-17T18:11:42.317Z,19.44
2017-10-17T18:14:13.508Z,19.31
2017-10-17T18:16:42.671Z,19.07
2017-10-17T18:19:11.365Z,19.26
2017-10-17T18:21:39.308Z,19.28
2017-10-17T18:24:07.602Z,19.33
2017-10-17T18:26:41.559Z,19.26
2017-10-17T18:29:09.954Z,19.32
2017-10-17T18:31:37.891Z,19.34
2017-10-17T18:34:22.030Z,19.22
2017-10-17T18:36:50.170Z,19.19
2017-10-17T18:39:18.182Z,18.98
2017-10-17T18:41:46.880Z,18.89
2017-10-17T18:44:29.279Z,18.48
2017-10-17T18:46:58.216Z,18.60
2017-10-17T18:52:05.878Z,18.49
2017-10-17T18:54:35.084Z,18.20
2017-10-17T18:57:04.804Z,18.21
2017-10-17T19:03:10.297Z,18.09
2017-10-17T19:09:11.014Z,18.11
2017-10-17T19:14:37.284Z,18.07
2017-10-17T19:17:07.560Z,18.04
2017-10-17T19:19:35.857Z,17.88
2017-10-17T19:22:09.276Z,17.70
2017-10-17T19:24:39.300Z,17.69
2017-10-17T19:27:10.275Z,17.66
2017-10-17T19:29:38.189Z,17.42
2017-10-17T19:32:07.885Z,17.50
2017-10-17T19:34:36.122Z,17.60
2017-10-17T19:42:20.616Z,17.58
2017-10-17T19:44:48.480Z,17.56
2017-10-17T19:47:20.778Z,17.50
2017-10-17T19:49:49.742Z,17.53
2017-10-17T19:52:18.140Z,17.51
2017-10-17T19:54:45.786Z,17.25
2017-10-17T19:57:16.775Z,17.20
2017-10-17T19:59:45.832Z,17.22
2017-10-17T20:02:13.588Z,16.80
2017-10-17T20:04:46.797Z,16.72
2017-10-17T20:07:14.946Z,16.59
2017-10-17T20:09:48.221Z,16.77
2017-10-17T20:12:17.455Z,16.82
2017-10-17T20:14:46.700Z,16.68
2017-10-17T20:17:14.372Z,16.70
2017-10-17T20:22:36.535Z,16.46
2017-10-17T20:27:39.741Z,16.63
2017-10-17T20:30:07.623Z,16.44
2017-10-17T20:32:36.306Z,16.62
2017-10-17T20:35:04.138Z,16.50
2017-10-17T20:37:31.770Z,16.38
2017-10-17T20:39:59.508Z,16.52
2017-10-17T20:42:27.309Z,16.45
2017-10-17T20:45:05.379Z,16.43
2017-10-17T20:52:33.475Z,16.27
2017-10-17T20:55:01.428Z,16.25
2017-10-17T20:57:34.606Z,16.19
2017-10-17T21:00:04.123Z,16.02
2017-10-17T21:02:39.060Z,16.08
2017-10-17T21:07:46.435Z,16.03
2017-10-17T21:10:27.351Z,16.00
2017-10-17T21:20:48.019Z,16.07
2017-10-17T21:23:16.916Z,15.92
2017-10-17T21:29:00.069Z,15.79
2017-10-17T21:31:27.766Z,15.76
2017-10-17T21:36:33.240Z,15.94
2017-10-17T21:39:01.259Z,15.82
2017-10-17T21:41:29.200Z,15.81
2017-10-17T21:44:00.895Z,15.77
2017-10-17T21:46:30.872Z,15.66
2017-10-17T21:51:29.874Z,15.56
2017-10-17T21:56:55.843Z,15.36
2017-10-17T21:59:24.445Z,15.49
2017-10-17T22:02:07.412Z,15.24
2017-10-17T22:04:50.629Z,15.24
2017-10-17T22:07:20.047Z,15.05
2017-10-17T22:10:05.447Z,14.81
2017-10-17T22:15:43.097Z,14.96
2017-10-17T22:21:16.131Z,14.95
2017-10-17T22:26:43.065Z,14.99
2017-10-17T22:29:13.281Z,14.95
2017-10-17T22:31:54.979Z,14.88
2017-10-17T23:47:17.433Z,13.16
2017-10-17T23:49:45.190Z,13.24
2017-10-17T23:58:15.388Z,13.75
